Time;durP1;ratioP1;P1;durP2;ratioP2;P2;SDS_P1;SDS_P2;PMS_P1;PMS_P2;Temp;Humidity;BMP_temperature;BMP_pressure;BME280_temperature;BME280_humidity;BME280_pressure;Samples;Min_cycle;Max_cycle;Signal;HPM_P1;HPM_P2
2023/12/03 00:01:27;;;;;;;30.97;15.27;;;;;;;-4.73;100.00;101154.19;5117954;27;20367;-65
2023/12/03 00:03:56;;;;;;;28.70;16.17;;;;;;;-4.79;100.00;101145.78;5118076;27;20056;-65
2023/12/03 00:06:22;;;;;;;26.73;15.05;;;;;;;-4.68;100.00;101167.03;5118052;27;20040;-66
2023/12/03 00:08:47;;;;;;;27.00;16.60;;;;;;;-4.77;100.00;101163.00;5117949;27;20044;-64
2023/12/03 00:11:13;;;;;;;28.67;15.07;;;;;;;-5.20;100.00;101096.19;5118052;27;20035;-64
2023/12/03 00:13:38;;;;;;;35.00;18.27;;;;;;;-4.83;100.00;101168.44;5118640;27;20399;-66
2023/12/03 00:16:04;;;;;;;30.13;15.57;;;;;;;-4.89;100.00;101163.47;5118472;28;20080;-65
2023/12/03 00:18:30;;;;;;;35.85;16.33;;;;;;;-4.75;100.00;101176.78;5117802;27;20042;-65
2023/12/03 00:20:55;;;;;;;23.40;13.67;;;;;;;-4.93;100.00;101141.06;5118097;27;20035;-65
2023/12/03 00:23:21;;;;;;;28.23;15.73;;;;;;;-4.77;100.00;101155.22;5114675;27;20023;-65
2023/12/03 00:25:47;;;;;;;28.30;14.17;;;;;;;-4.82;100.00;101149.34;5114370;28;20027;-65
2023/12/03 00:28:12;;;;;;;27.30;14.80;;;;;;;-4.75;100.00;101165.56;5114720;28;20173;-65
2023/12/03 00:30:38;;;;;;;28.13;17.80;;;;;;;-4.73;100.00;101158.56;5113702;28;20067;-65
2023/12/03 00:33:03;;;;;;;28.70;14.67;;;;;;;-4.86;100.00;101142.56;5114504;28;20046;-66
2023/12/03 00:35:29;;;;;;;27.20;15.67;;;;;;;-4.79;100.00;101158.78;5114221;28;20063;-64
2023/12/03 00:38:20;;;;;;;30.60;16.02;;;;;;;-4.79;100.00;101154.44;5114682;28;20261;-65
2023/12/03 00:40:45;;;;;;;26.53;15.00;;;;;;;-4.69;100.00;101171.38;5114938;28;20039;-67
2023/12/03 00:43:11;;;;;;;27.40;14.13;;;;;;;-4.84;100.00;101145.97;5114347;28;20383;-66
2023/12/03 00:45:36;;;;;;;29.40;15.40;;;;;;;-4.72;100.00;101152.44;5114298;28;20121;-65
2023/12/03 00:48:02;;;;;;;31.57;16.67;;;;;;;-4.75;100.00;101150.81;5113995;28;20479;-65
2023/12/03 00:50:27;;;;;;;27.13;16.27;;;;;;;-4.67;100.00;101156.56;5114062;27;20032;-65
2023/12/03 00:52:53;;;;;;;25.93;15.30;;;;;;;-4.60;100.00;101164.16;5114260;27;20035;-66
2023/12/03 00:55:18;;;;;;;30.27;14.10;;;;;;;-4.74;100.00;101136.06;5114666;27;20045;-65
2023/12/03 00:57:44;;;;;;;30.65;16.02;;;;;;;-4.59;100.00;101165.84;5114035;28;20066;-65
2023/12/03 01:00:11;;;;;;;31.70;16.17;;;;;;;-5.68;100.00;101006.16;5112610;28;20498;-66
2023/12/03 01:02:36;;;;;;;23.90;14.07;;;;;;;-4.99;100.00;101120.53;5113796;28;20522;-66
2023/12/03 01:05:02;;;;;;;28.07;14.30;;;;;;;-4.82;100.00;101169.28;5114350;28;20101;-65
2023/12/03 01:07:29;;;;;;;30.65;15.23;;;;;;;-4.78;100.00;101171.72;5114086;28;20675;-64
2023/12/03 01:09:55;;;;;;;27.57;14.07;;;;;;;-4.78;100.00;101161.31;5113818;28;20177;-67
2023/12/03 01:12:21;;;;;;;27.75;15.15;;;;;;;-4.71;100.00;101167.97;5112620;28;20031;-65
2023/12/03 01:14:47;;;;;;;26.07;15.23;;;;;;;-5.13;100.00;101099.41;5113681;28;20551;-64
2023/12/03 01:17:12;;;;;;;27.47;14.43;;;;;;;-4.93;100.00;101151.47;5113465;27;20035;-65
2023/12/03 01:19:38;;;;;;;25.27;16.80;;;;;;;-4.93;100.00;101163.59;5113681;28;20092;-65
2023/12/03 01:22:03;;;;;;;29.47;16.43;;;;;;;-4.95;100.00;101155.03;5112425;28;20123;-65
2023/12/03 01:24:29;;;;;;;26.03;14.80;;;;;;;-4.90;100.00;101182.56;5113461;28;20509;-66
2023/12/03 01:26:55;;;;;;;24.83;13.83;;;;;;;-5.27;100.00;101130.19;5113605;28;20031;-65
2023/12/03 01:29:21;;;;;;;25.10;14.50;;;;;;;-5.03;100.00;101170.88;5113326;28;20039;-66
2023/12/03 01:31:46;;;;;;;22.90;14.30;;;;;;;-5.05;100.00;101151.91;5113203;28;20035;-65
2023/12/03 01:34:12;;;;;;;30.10;15.57;;;;;;;-4.84;100.00;101166.75;5111932;28;20039;-66
2023/12/03 01:36:38;;;;;;;27.20;15.10;;;;;;;-4.90;100.00;101151.38;5113241;28;20054;-65
2023/12/03 01:39:05;;;;;;;26.47;16.67;;;;;;;-4.72;100.00;101165.44;5113250;28;20047;-65
2023/12/03 01:41:31;;;;;;;24.58;18.25;;;;;;;-4.61;100.00;101173.72;5111955;28;20127;-65
2023/12/03 01:43:56;;;;;;;26.17;14.30;;;;;;;-4.75;100.00;101148.22;5113257;28;20517;-65
2023/12/03 01:46:22;;;;;;;26.97;14.60;;;;;;;-4.69;100.00;101154.94;5112908;28;20495;-66
2023/12/03 01:48:49;;;;;;;23.83;14.27;;;;;;;-4.67;100.00;101153.13;5113006;28;20046;-66
2023/12/03 01:51:15;;;;;;;30.27;15.82;;;;;;;-5.09;100.00;101080.22;5113031;28;20487;-65
2023/12/03 01:53:42;;;;;;;26.70;13.87;;;;;;;-4.76;100.00;101128.31;5112947;28;20043;-66
2023/12/03 01:56:09;;;;;;;30.42;15.23;;;;;;;-4.56;100.00;101164.00;5112863;28;20307;-65
2023/12/03 01:58:35;;;;;;;28.85;15.57;;;;;;;-4.91;100.00;101123.72;5113198;28;20043;-64
2023/12/03 02:01:01;;;;;;;31.63;15.33;;;;;;;-4.61;100.00;101163.31;5112768;28;20039;-64
2023/12/03 02:03:28;;;;;;;23.70;15.33;;;;;;;-4.75;100.00;101145.63;5112449;28;20074;-64
2023/12/03 02:06:14;;;;;;;29.67;15.27;;;;;;;-4.61;100.00;101165.91;5112825;28;20130;-65
2023/12/03 02:08:40;;;;;;;32.70;17.05;;;;;;;-4.63;100.00;101177.25;5112538;28;20510;-64
2023/12/03 02:11:06;;;;;;;25.90;14.87;;;;;;;-4.69;100.00;101175.72;5112881;28;20039;-64
2023/12/03 02:13:36;;;;;;;;;;;;;;;-4.69;100.00;101181.75;5112924;28;20031;-64
2023/12/03 02:16:01;;;;;;;26.55;15.48;;;;;;;-5.15;100.00;101109.00;5112439;28;19970;-65
2023/12/03 02:18:29;;;;;;;30.30;15.60;;;;;;;-4.80;100.00;101163.13;5112670;28;20425;-65
2023/12/03 02:21:14;;;;;;;25.67;16.10;;;;;;;-4.80;100.00;101183.91;5097417;28;20134;-66
2023/12/03 02:23:39;;;;;;;35.60;18.77;;;;;;;-4.92;100.00;101168.75;5111411;28;20080;-66
2023/12/03 02:26:06;;;;;;;28.73;16.03;;;;;;;-4.97;100.00;101170.66;5112626;28;20081;-66
2023/12/03 02:28:32;;;;;;;30.75;15.93;;;;;;;-5.03;100.00;101165.69;5112504;28;20042;-66
2023/12/03 02:30:58;;;;;;;27.63;15.50;;;;;;;-4.89;100.00;101183.41;5112680;28;20031;-66
2023/12/03 02:33:23;;;;;;;28.50;15.10;;;;;;;-4.92;100.00;101183.47;5112707;28;20049;-64
2023/12/03 02:35:49;;;;;;;29.00;17.03;;;;;;;-4.86;100.00;101191.09;5112397;28;20032;-65
2023/12/03 02:38:15;;;;;;;25.03;15.80;;;;;;;-4.78;100.00;101207.25;5112330;28;20368;-66
2023/12/03 02:40:41;;;;;;;33.15;17.52;;;;;;;-4.81;100.00;101207.34;5112207;28;20126;-66
2023/12/03 02:43:07;;;;;;;30.07;17.37;;;;;;;-4.73;100.00;101223.50;5110850;28;20551;-65
2023/12/03 02:45:32;;;;;;;30.20;16.43;;;;;;;-4.77;100.00;101225.38;5112222;28;20037;-65
2023/12/03 02:47:58;;;;;;;34.37;20.20;;;;;;;-4.89;100.00;101199.84;5112420;28;20067;-64
2023/12/03 02:50:24;;;;;;;30.23;15.60;;;;;;;-5.01;100.00;101176.88;5112202;28;20122;-64
2023/12/03 02:52:49;;;;;;;25.23;15.47;;;;;;;-4.81;100.00;101203.00;5112158;27;20159;-66
2023/12/03 02:55:15;;;;;;;30.50;17.00;;;;;;;-4.64;100.00;101215.38;5112430;28;20066;-66
2023/12/03 02:57:40;;;;;;;28.43;16.67;;;;;;;-4.63;100.00;101216.22;5111987;28;20039;-65
2023/12/03 03:00:07;;;;;;;31.70;19.47;;;;;;;-4.75;100.00;101192.38;5112383;28;20399;-65
2023/12/03 03:02:33;;;;;;;28.63;15.40;;;;;;;-4.76;100.00;101179.44;5112335;28;20032;-65
2023/12/03 03:05:01;;;;;;;33.97;17.85;;;;;;;-4.51;100.00;101223.59;5111842;28;20051;-66
2023/12/03 03:07:27;;;;;;;33.42;19.75;;;;;;;-4.39;100.00;101225.75;5111218;28;20122;-65
2023/12/03 03:09:53;;;;;;;34.28;19.45;;;;;;;-4.32;100.00;101222.03;5112063;28;20440;-67
2023/12/03 03:12:19;;;;;;;38.03;22.23;;;;;;;-4.49;100.00;101204.44;5112201;28;20119;-66
2023/12/03 03:14:44;;;;;;;41.37;22.97;;;;;;;-4.66;100.00;101201.59;5111964;28;20391;-65
2023/12/03 03:17:10;;;;;;;46.13;26.90;;;;;;;-4.63;100.00;101221.44;5110967;28;20040;-68
2023/12/03 03:19:35;;;;;;;47.73;30.43;;;;;;;-4.75;100.00;101225.31;5093307;28;20035;-66
2023/12/03 03:22:01;;;;;;;49.70;29.73;;;;;;;-4.96;100.00;101229.50;5111609;28;20131;-66
2023/12/03 03:24:27;;;;;;;51.63;30.33;;;;;;;-4.99;100.00;101240.00;5111608;28;20038;-65
2023/12/03 03:26:52;;;;;;;48.80;28.60;;;;;;;-5.04;100.00;101231.53;5111823;28;20039;-65
2023/12/03 03:29:18;;;;;;;53.13;30.63;;;;;;;-5.01;100.00;101232.25;5111793;28;20069;-64
2023/12/03 03:31:44;;;;;;;46.37;29.40;;;;;;;-5.26;100.00;101170.81;5111685;28;20035;-67
2023/12/03 03:34:10;;;;;;;45.63;27.42;;;;;;;-4.88;100.00;101222.31;5111606;28;20048;-66
2023/12/03 03:36:36;;;;;;;47.80;28.17;;;;;;;-4.88;100.00;101217.13;5111514;28;20046;-65
2023/12/03 03:39:01;;;;;;;53.23;28.97;;;;;;;-4.79;100.00;101221.97;5111313;28;20035;-65
2023/12/03 03:41:27;;;;;;;51.03;29.87;;;;;;;-4.91;100.00;101191.25;5111543;28;20031;-65
2023/12/03 03:43:52;;;;;;;55.70;31.10;;;;;;;-4.74;100.00;101235.66;5111871;28;20093;-66
2023/12/03 03:46:18;;;;;;;49.23;30.10;;;;;;;-4.84;100.00;101213.50;5111525;28;20126;-66
2023/12/03 03:48:44;;;;;;;46.17;26.87;;;;;;;-4.77;100.00;101214.13;5111584;28;20035;-65
2023/12/03 03:51:09;;;;;;;51.30;28.57;;;;;;;-4.62;100.00;101230.94;5111833;28;20450;-65
2023/12/03 03:53:35;;;;;;;47.53;25.33;;;;;;;-4.56;100.00;101225.53;5112026;28;20473;-66
2023/12/03 03:56:08;;;;;;;34.30;20.20;;;;;;;-4.50;100.00;101238.28;5111348;28;20031;-66
2023/12/03 03:58:36;;;;;;;36.67;20.90;;;;;;;-4.47;100.00;101225.19;5113077;28;20066;-66
2023/12/03 04:01:04;;;;;;;38.72;22.55;;;;;;;-4.39;100.00;101230.94;5115217;28;20031;-66
2023/12/03 04:03:30;;;;;;;32.60;18.00;;;;;;;-4.36;100.00;101223.03;5113924;28;20499;-66
2023/12/03 04:06:06;;;;;;;37.10;20.17;;;;;;;-4.19;100.00;101235.41;5115168;28;20077;-65
2023/12/03 04:08:33;;;;;;;31.30;17.10;;;;;;;-4.19;100.00;101244.06;5115091;28;20207;-66
2023/12/03 04:11:04;;;;;;;27.98;14.15;;;;;;;-4.28;100.00;101236.63;5115183;27;20043;-66
2023/12/03 04:13:31;;;;;;;30.02;15.93;;;;;;;-4.39;100.00;101233.53;5115037;28;20050;-64
2023/12/03 04:15:57;;;;;;;25.30;14.98;;;;;;;-4.60;100.00;101214.41;5113981;28;20632;-65
2023/12/03 04:18:23;;;;;;;30.67;17.73;;;;;;;-5.07;100.00;101143.34;5115261;28;20400;-65
2023/12/03 04:20:49;;;;;;;27.70;16.05;;;;;;;-4.51;100.00;101232.25;5116267;28;20074;-67
2023/12/03 04:23:15;;;;;;;31.23;17.10;;;;;;;-4.58;100.00;101216.94;5115777;27;20031;-66
2023/12/03 04:25:41;;;;;;;26.73;14.90;;;;;;;-4.49;100.00;101229.59;5097641;28;20064;-66
2023/12/03 04:28:06;;;;;;;30.47;15.30;;;;;;;-4.39;100.00;101246.53;5115599;27;20039;-64
2023/12/03 04:30:32;;;;;;;33.77;17.97;;;;;;;-4.52;100.00;101211.50;5115193;28;20031;-66
2023/12/03 04:32:57;;;;;;;27.13;16.27;;;;;;;-4.48;100.00;101226.94;5115094;28;20036;-66
2023/12/03 04:35:23;;;;;;;33.57;18.73;;;;;;;-4.53;100.00;101222.81;5114801;28;20028;-66
2023/12/03 04:37:48;;;;;;;33.33;15.20;;;;;;;-4.58;100.00;101224.72;5115392;28;20118;-66
2023/12/03 04:40:15;;;;;;;30.53;16.90;;;;;;;-4.75;100.00;101200.19;5115109;28;20032;-66
2023/12/03 04:42:41;;;;;;;29.88;17.02;;;;;;;-4.82;100.00;101200.47;5115881;28;20051;-65
2023/12/03 04:45:07;;;;;;;32.80;17.00;;;;;;;-4.69;100.00;101206.91;5113510;28;20035;-66
2023/12/03 04:47:33;;;;;;;32.17;18.20;;;;;;;-4.48;100.00;101224.34;5114457;28;20038;-65
2023/12/03 04:49:58;;;;;;;33.63;16.93;;;;;;;-4.90;100.00;101135.78;5114758;28;20039;-66
2023/12/03 04:52:24;;;;;;;29.90;16.17;;;;;;;-4.43;100.00;101229.34;5116257;28;20036;-67
2023/12/03 04:54:50;;;;;;;32.03;17.30;;;;;;;-4.57;100.00;101200.44;5120506;28;20486;-66
2023/12/03 04:57:16;;;;;;;26.87;15.43;;;;;;;-4.39;100.00;101237.00;5127971;28;20123;-65
2023/12/03 04:59:41;;;;;;;29.73;16.37;;;;;;;-4.53;100.00;101202.00;5127380;28;20081;-66
2023/12/03 05:02:07;;;;;;;29.80;17.13;;;;;;;-4.37;100.00;101218.72;5124100;28;20604;-66
2023/12/03 05:04:33;;;;;;;35.23;15.53;;;;;;;-4.27;100.00;101225.31;5122162;28;20058;-65
2023/12/03 05:07:00;;;;;;;34.45;16.90;;;;;;;-4.23;100.00;101224.28;5123659;28;20108;-66
2023/12/03 05:09:25;;;;;;;32.40;15.38;;;;;;;-4.57;100.00;101167.50;5110094;28;20044;-66
2023/12/03 05:11:51;;;;;;;29.63;18.47;;;;;;;-4.24;100.00;101230.38;5131445;28;20059;-65
2023/12/03 05:14:17;;;;;;;33.57;18.23;;;;;;;-4.50;100.00;101201.91;5133332;28;20041;-66
2023/12/03 05:16:42;;;;;;;32.00;17.10;;;;;;;-4.42;100.00;101215.44;5131433;28;20060;-65
2023/12/03 05:19:08;;;;;;;27.27;14.93;;;;;;;-4.34;100.00;101229.00;5131171;28;20035;-67
2023/12/03 05:21:33;;;;;;;33.87;19.17;;;;;;;-4.51;100.00;101192.41;5130973;28;20059;-66
2023/12/03 05:23:59;;;;;;;27.27;15.37;;;;;;;-4.89;100.00;101140.09;5118649;28;20028;-66
2023/12/03 05:26:24;;;;;;;30.20;16.23;;;;;;;-4.60;100.00;101200.56;5112466;28;20023;-65
2023/12/03 05:28:50;;;;;;;33.53;15.43;;;;;;;-4.58;100.00;101209.97;5113476;28;20459;-66
2023/12/03 05:31:15;;;;;;;28.70;17.43;;;;;;;-4.81;100.00;101177.03;5113561;28;20027;-65
2023/12/03 05:33:41;;;;;;;29.50;14.93;;;;;;;-4.72;100.00;101202.66;5113426;28;20491;-69
2023/12/03 05:36:08;;;;;;;33.47;18.00;;;;;;;-4.78;100.00;101202.88;5095438;28;20035;-66
2023/12/03 05:38:34;;;;;;;32.83;17.50;;;;;;;-4.90;100.00;101187.75;5112373;28;20135;-65
2023/12/03 05:41:00;;;;;;;35.90;16.73;;;;;;;-5.00;100.00;101155.19;5114441;28;20565;-66
2023/12/03 05:43:25;;;;;;;33.97;19.00;;;;;;;-4.60;100.00;101213.53;5114640;28;20494;-65
2023/12/03 05:45:51;;;;;;;33.07;17.20;;;;;;;-4.57;100.00;101221.22;5114510;28;20031;-65
2023/12/03 05:48:17;;;;;;;34.97;18.53;;;;;;;-4.59;100.00;101207.44;5114013;28;20031;-66
2023/12/03 05:50:42;;;;;;;35.53;18.23;;;;;;;-4.64;100.00;101196.34;5112423;28;20080;-65
2023/12/03 05:53:08;;;;;;;31.27;18.33;;;;;;;-4.78;100.00;101179.50;5111852;28;20406;-66
2023/12/03 05:55:33;;;;;;;38.43;18.90;;;;;;;-4.82;100.00;101177.94;5113317;28;20084;-66
2023/12/03 05:57:59;;;;;;;29.63;18.00;;;;;;;-4.70;100.00;101216.44;5111849;28;20032;-66
2023/12/03 06:00:24;;;;;;;32.80;19.27;;;;;;;-5.19;100.00;101143.78;5114686;28;20027;-68
2023/12/03 06:02:50;;;;;;;33.53;17.60;;;;;;;-4.83;100.00;101210.00;5114326;28;20028;-65
2023/12/03 06:05:17;;;;;;;32.57;17.77;;;;;;;-4.87;100.00;101194.59;5111872;28;20047;-65
2023/12/03 06:07:42;;;;;;;37.47;18.40;;;;;;;-4.71;100.00;101219.09;5112758;28;20542;-66
2023/12/03 06:10:08;;;;;;;36.00;19.20;;;;;;;-4.73;100.00;101202.72;5112855;28;20074;-64
2023/12/03 06:12:34;;;;;;;34.27;19.80;;;;;;;-4.69;100.00;101210.34;5112860;28;20055;-67
2023/12/03 06:14:59;;;;;;;40.73;20.07;;;;;;;-4.61;100.00;101227.44;5112865;28;20486;-67
2023/12/03 06:17:25;;;;;;;37.47;18.73;;;;;;;-5.66;100.00;101045.03;5112493;28;20028;-66
2023/12/03 06:19:50;;;;;;;33.23;19.83;;;;;;;-4.71;100.00;101195.72;5111937;28;20092;-65
2023/12/03 06:22:16;;;;;;;36.57;20.40;;;;;;;-4.86;100.00;101181.53;5112479;28;20063;-65
2023/12/03 06:24:42;;;;;;;37.13;20.27;;;;;;;-4.74;100.00;101216.63;5112291;28;20028;-66
2023/12/03 06:27:07;;;;;;;40.30;19.10;;;;;;;-4.70;100.00;101221.66;5111063;28;20027;-66
2023/12/03 06:29:33;;;;;;;40.60;20.37;;;;;;;-4.67;100.00;101226.72;5110905;28;20042;-67
2023/12/03 06:31:58;;;;;;;31.93;18.63;;;;;;;-5.03;100.00;101158.75;5111005;28;20138;-67
2023/12/03 06:34:24;;;;;;;34.33;18.03;;;;;;;-4.76;100.00;101211.47;5112395;28;20066;-66
2023/12/03 06:36:49;;;;;;;35.83;19.70;;;;;;;-4.67;100.00;101247.53;5112364;28;20126;-66
2023/12/03 06:39:15;;;;;;;32.77;18.13;;;;;;;-4.81;100.00;101210.78;5112489;28;20034;-68
2023/12/03 06:41:40;;;;;;;38.93;20.63;;;;;;;-4.56;100.00;101241.13;5094101;28;20065;-68
2023/12/03 06:44:06;;;;;;;40.23;20.00;;;;;;;-4.52;100.00;101224.50;5112236;28;20047;-65
2023/12/03 06:46:41;;;;;;;42.10;20.87;;;;;;;-4.43;100.00;101235.41;5112033;28;20040;-65
2023/12/03 06:49:07;;;;;;;41.33;20.27;;;;;;;-4.50;100.00;101226.13;5112145;28;20073;-67
2023/12/03 06:51:33;;;;;;;37.27;21.87;;;;;;;-4.54;100.00;101223.72;5111925;28;20067;-68
2023/12/03 06:54:00;;;;;;;34.97;20.17;;;;;;;-4.81;100.00;101223.78;5111870;28;20069;-67
2023/12/03 06:56:26;;;;;;;40.97;23.05;;;;;;;-4.93;100.00;101218.16;5112069;28;20059;-66
2023/12/03 06:58:51;;;;;;;35.80;18.90;;;;;;;-5.03;100.00;101200.31;5111574;28;20427;-67
2023/12/03 07:01:17;;;;;;;36.30;20.77;;;;;;;-5.76;100.00;101073.03;5110597;28;20031;-67
2023/12/03 07:03:42;;;;;;;38.90;21.03;;;;;;;-4.68;100.00;101234.59;5111981;28;20051;-65
2023/12/03 07:06:12;;;;;;;40.77;21.10;;;;;;;-5.05;100.00;101189.13;5110795;28;20051;-67
2023/12/03 07:08:38;;;;;;;36.15;20.42;;;;;;;-5.00;100.00;101217.53;5111683;28;20485;-67
2023/12/03 07:11:04;;;;;;;36.90;18.97;;;;;;;-5.16;100.00;101211.19;5111944;28;20058;-65
2023/12/03 07:13:29;;;;;;;38.23;19.83;;;;;;;-5.11;100.00;101232.63;5110237;28;20035;-67
2023/12/03 07:15:55;;;;;;;34.50;19.07;;;;;;;-5.34;100.00;101208.28;5112289;28;20067;-65
2023/12/03 07:18:21;;;;;;;37.40;19.83;;;;;;;-5.38;100.00;101206.69;5112138;28;20047;-66
2023/12/03 07:20:46;;;;;;;38.03;20.27;;;;;;;-5.17;100.00;101236.28;5093861;28;20050;-68
2023/12/03 07:23:12;;;;;;;39.23;21.30;;;;;;;-5.12;100.00;101238.72;5111868;28;20087;-66
2023/12/03 07:25:37;;;;;;;35.37;17.63;;;;;;;-5.30;100.00;101199.50;5111521;28;20036;-65
2023/12/03 07:28:03;;;;;;;35.93;18.50;;;;;;;-5.06;100.00;101234.16;5111501;28;20040;-66
2023/12/03 07:30:29;;;;;;;44.30;20.43;;;;;;;-5.16;100.00;101211.19;5111629;28;20107;-66
2023/12/03 07:32:55;;;;;;;47.17;20.77;;;;;;;-5.19;100.00;101211.28;5097058;28;20050;-65
2023/12/03 07:35:20;;;;;;;39.27;21.13;;;;;;;-5.06;100.00;101222.94;5115922;28;20046;-67
2023/12/03 07:37:46;;;;;;;33.13;17.03;;;;;;;-5.01;100.00;101227.06;5115823;28;20031;-68
2023/12/03 07:40:11;;;;;;;40.23;18.23;;;;;;;-4.87;100.00;101239.59;5114466;28;20038;-67
2023/12/03 07:42:37;;;;;;;35.17;18.60;;;;;;;-4.83;100.00;101225.59;5115621;27;20089;-67
2023/12/03 07:45:03;;;;;;;33.50;18.53;;;;;;;-4.70;100.00;101232.03;5115824;28;20559;-67
2023/12/03 07:47:31;;;;;;;42.25;21.02;;;;;;;-4.47;100.00;101238.19;5114237;28;20415;-67
2023/12/03 07:49:57;;;;;;;39.33;19.70;;;;;;;-4.47;100.00;101238.19;5115342;28;20061;-67
2023/12/03 07:52:22;;;;;;;35.67;19.47;;;;;;;-4.41;100.00;101249.19;5115737;28;20068;-67
2023/12/03 07:54:48;;;;;;;32.23;16.37;;;;;;;-4.54;100.00;101236.72;5115715;28;20028;-66
2023/12/03 07:57:13;;;;;;;33.80;18.07;;;;;;;-4.59;100.00;101236.03;5115241;28;20046;-68
2023/12/03 07:59:39;;;;;;;35.83;19.50;;;;;;;-4.61;100.00;101261.22;5114214;28;20031;-68
2023/12/03 08:02:06;;;;;;;35.77;20.60;;;;;;;-4.71;100.00;101266.72;5115496;28;20039;-65
2023/12/03 08:04:32;;;;;;;37.33;19.20;;;;;;;-5.07;100.00;101224.69;5115037;28;20052;-65
2023/12/03 08:06:57;;;;;;;39.38;19.85;;;;;;;-4.77;100.00;101279.09;5113865;28;20471;-67
2023/12/03 08:09:24;;;;;;;38.17;21.67;;;;;;;-4.72;100.00;101270.22;5114776;28;20036;-67
2023/12/03 08:11:49;;;;;;;38.05;20.20;;;;;;;-4.57;100.00;101274.06;5113603;28;20023;-66
2023/12/03 08:14:15;;;;;;;36.13;19.10;;;;;;;-4.57;100.00;101275.81;5114949;28;20130;-66
2023/12/03 08:16:40;;;;;;;39.10;21.73;;;;;;;-4.57;100.00;101279.25;5114112;28;20039;-66
2023/12/03 08:19:06;;;;;;;44.90;21.07;;;;;;;-4.63;100.00;101283.81;5113430;28;20039;-66
2023/12/03 08:21:33;;;;;;;37.40;20.93;;;;;;;-4.69;100.00;101257.13;5114826;28;20096;-67
2023/12/03 08:23:59;;;;;;;35.75;19.40;;;;;;;-4.54;100.00;101267.91;5114686;28;20027;-67
2023/12/03 08:26:25;;;;;;;38.37;21.17;;;;;;;-4.84;100.00;101228.25;5114714;28;20042;-66
2023/12/03 08:28:50;;;;;;;43.43;21.10;;;;;;;-4.63;100.00;101263.84;5114724;28;20027;-66
2023/12/03 08:31:16;;;;;;;33.77;18.97;;;;;;;-4.54;100.00;101260.94;5114692;28;20041;-67
2023/12/03 08:33:42;;;;;;;38.10;21.57;;;;;;;-4.90;100.00;101208.53;5114830;28;20039;-68
2023/12/03 08:36:08;;;;;;;32.23;18.47;;;;;;;-4.58;100.00;101274.97;5114491;28;20494;-66
2023/12/03 08:38:34;;;;;;;39.03;18.60;;;;;;;-4.75;100.00;101254.75;5114642;28;20104;-68
2023/12/03 08:41:00;;;;;;;36.70;17.93;;;;;;;-4.54;100.00;101288.69;5114389;28;20069;-66
2023/12/03 08:43:25;;;;;;;39.43;21.77;;;;;;;-4.54;100.00;101296.50;5113901;28;20035;-66
2023/12/03 08:45:51;;;;;;;37.43;19.97;;;;;;;-4.64;100.00;101293.34;5114451;28;20052;-68
2023/12/03 08:48:17;;;;;;;36.67;20.77;;;;;;;-4.79;100.00;101279.16;5113257;28;20036;-67
2023/12/03 08:50:43;;;;;;;38.47;19.93;;;;;;;-4.61;100.00;101295.88;5113058;28;20065;-67
2023/12/03 08:53:09;;;;;;;46.28;23.13;;;;;;;-4.54;100.00;101305.16;5115772;28;20074;-67
2023/12/03 08:55:35;;;;;;;42.70;21.60;;;;;;;-4.51;100.00;101298.97;5115124;28;20448;-66
2023/12/03 08:58:02;;;;;;;36.67;20.57;;;;;;;-4.62;100.00;101293.31;5114197;28;20265;-66
2023/12/03 09:00:28;;;;;;;34.08;18.88;;;;;;;-4.62;100.00;101311.50;5114098;28;20138;-66
2023/12/03 09:02:55;;;;;;;34.67;18.20;;;;;;;-4.71;100.00;101303.13;5113848;28;20118;-66
2023/12/03 09:05:21;;;;;;;36.38;20.73;;;;;;;-4.84;100.00;101278.47;5114268;28;20078;-69
2023/12/03 09:07:47;;;;;;;47.63;25.03;;;;;;;-4.87;100.00;101285.50;5112870;28;20114;-66
2023/12/03 09:10:13;;;;;;;45.70;23.50;;;;;;;-4.83;100.00;101292.31;5113591;28;20036;-66
2023/12/03 09:12:39;;;;;;;46.47;24.30;;;;;;;-4.84;100.00;101301.00;5113966;28;20441;-66
2023/12/03 09:15:06;;;;;;;41.35;24.25;;;;;;;-4.82;100.00;101307.00;5114302;27;20059;-67
2023/12/03 09:17:32;;;;;;;53.60;26.13;;;;;;;-4.77;100.00;101321.50;5114279;28;20490;-65
2023/12/03 09:19:57;;;;;;;48.57;24.67;;;;;;;-4.76;100.00;101299.81;5114067;28;20046;-66
2023/12/03 09:22:24;;;;;;;58.70;27.00;;;;;;;-4.69;100.00;101314.31;5112451;28;20088;-67
2023/12/03 09:24:50;;;;;;;46.78;24.20;;;;;;;-4.62;100.00;101295.91;5113744;28;20388;-67
2023/12/03 09:27:16;;;;;;;48.28;25.27;;;;;;;-4.55;100.00;101298.25;5113679;28;20032;-66
2023/12/03 09:29:42;;;;;;;47.33;24.60;;;;;;;-4.39;100.00;101321.94;5113444;28;20050;-66
2023/12/03 09:32:08;;;;;;;52.57;25.37;;;;;;;-4.49;100.00;101289.38;5113586;28;20556;-66
2023/12/03 09:34:34;;;;;;;51.47;24.20;;;;;;;-4.27;100.00;101299.88;5113318;28;20376;-66
2023/12/03 09:37:01;;;;;;;53.60;25.85;;;;;;;-4.06;100.00;101312.91;5113075;27;20035;-65
2023/12/03 09:39:28;;;;;;;53.40;25.85;;;;;;;-3.99;100.00;101305.75;5113098;28;20110;-66
2023/12/03 09:41:56;;;;;;;56.92;28.20;;;;;;;-4.00;100.00;101306.66;5113408;28;20027;-68
2023/12/03 09:44:32;;;;;;;60.38;25.10;;;;;;;-4.16;100.00;101274.31;5113336;28;20099;-66
2023/12/03 09:47:00;;;;;;;46.95;24.40;;;;;;;-4.05;99.73;101298.16;5112990;28;20486;-67
2023/12/03 09:49:30;;;;;;;47.30;24.45;;;;;;;-4.03;99.48;101301.59;5113214;28;20042;-67
2023/12/03 09:52:02;;;;;;;51.00;23.98;;;;;;;-4.04;99.51;101306.84;5113173;28;20504;-66
2023/12/03 09:54:28;;;;;;;44.80;24.73;;;;;;;-4.11;99.19;101306.19;5112152;27;20028;-66
2023/12/03 09:56:56;;;;;;;50.42;27.77;;;;;;;-4.40;99.56;101283.84;5111321;28;20055;-66
2023/12/03 09:59:22;;;;;;;48.72;22.77;;;;;;;-4.43;99.94;101299.56;5112729;28;20035;-66
2023/12/03 10:01:50;;;;;;;44.00;25.70;;;;;;;-4.90;100.00;101223.28;5112561;28;20043;-68
2023/12/03 10:04:16;;;;;;;40.28;23.20;;;;;;;-4.39;100.00;101294.19;5112296;28;20138;-66
2023/12/03 10:06:44;;;;;;;37.63;23.30;;;;;;;-4.42;100.00;101264.84;5112783;28;20521;-68
2023/12/03 10:09:12;;;;;;;45.53;23.40;;;;;;;-4.26;99.71;101284.22;5112648;28;20130;-67
2023/12/03 10:11:39;;;;;;;42.65;21.95;;;;;;;-4.34;99.39;101282.78;5112382;28;20089;-66
2023/12/03 10:14:09;;;;;;;39.78;21.92;;;;;;;-4.37;99.79;101270.72;5111107;28;20188;-66
2023/12/03 10:16:35;;;;;;;46.20;23.85;;;;;;;-4.52;100.00;101258.28;5112618;27;20043;-67
2023/12/03 10:19:00;;;;;;;45.13;21.50;;;;;;;-4.47;100.00;101277.16;5111123;28;20544;-67
2023/12/03 10:21:27;;;;;;;42.57;23.13;;;;;;;-4.43;100.00;101276.16;5112481;28;20558;-67
2023/12/03 10:24:04;;;;;;;40.08;21.33;;;;;;;-4.49;100.00;101255.59;5112344;28;20035;-67
2023/12/03 10:26:30;;;;;;;51.17;26.65;;;;;;;-4.51;100.00;101250.44;5112234;28;20047;-67
2023/12/03 10:28:56;;;;;;;40.50;20.50;;;;;;;-4.54;100.00;101252.31;5112339;27;20517;-66
2023/12/03 10:31:22;;;;;;;39.63;21.03;;;;;;;-4.47;100.00;101249.44;5110902;28;20039;-68
2023/12/03 10:33:47;;;;;;;33.97;21.73;;;;;;;-4.24;100.00;101266.78;5110899;28;20035;-66
2023/12/03 10:36:14;;;;;;;44.80;22.20;;;;;;;-4.33;100.00;101261.94;5112289;28;20036;-68
2023/12/03 10:38:43;;;;;;;44.95;26.08;;;;;;;-4.44;100.00;101264.06;5112341;28;20434;-68
2023/12/03 10:41:10;;;;;;;;;;;;;;;-4.54;100.00;101257.50;5112876;28;20067;-67
2023/12/03 10:43:37;;;;;;;40.47;22.13;;;;;;;-4.74;100.00;101266.00;5112076;28;20006;-67
2023/12/03 10:46:04;;;;;;;42.92;22.05;;;;;;;-4.82;100.00;101258.47;5111983;28;20046;-66
2023/12/03 10:48:34;;;;;;;47.03;23.48;;;;;;;-4.84;100.00;101257.69;5110978;28;20044;-67
2023/12/03 10:51:04;;;;;;;44.03;22.88;;;;;;;-4.86;100.00;101256.03;5111083;28;20040;-66
2023/12/03 10:53:31;;;;;;;45.33;23.55;;;;;;;-4.98;100.00;101246.88;5112168;28;20024;-66
2023/12/03 10:55:57;;;;;;;47.25;23.85;;;;;;;-5.09;100.00;101243.81;5112010;28;20495;-67
2023/12/03 10:58:25;;;;;;;49.17;22.33;;;;;;;-5.23;100.00;101215.69;5111902;28;20039;-67